| time (UTC) | temp F | wind direction | speed MPH | gust MPH | rain 1hr in | rain 24hr in | rain mn in | humidity % | barometer mb |
| 20260508033004 | 41 | 232 | 7.0 | 14.0 | 0.00 | 0.00 | 0.00 | 58 | 1020.7 |
| 20260508032504 | 41 | 268 | 7.0 | 14.0 | 0.00 | 0.00 | 0.00 | 58 | 1020.7 |
| 20260508032004 | 41 | 261 | 9.0 | 14.0 | 0.00 | 0.00 | 0.00 | 57 | 1020.7 |
| 20260508031503 | 41 | 254 | 9.0 | 15.0 | 0.00 | 0.00 | 0.00 | 58 | 1020.6 |
| 20260508031004 | 41 | 254 | 8.0 | 13.0 | 0.00 | 0.00 | 0.00 | 58 | 1020.6 |
| 20260508030504 | 41 | 240 | 8.0 | 14.0 | 0.00 | 0.00 | 0.00 | 59 | 1020.5 |
| 20260508030003 | 41 | 265 | 9.0 | 14.0 | 0.00 | 0.00 | 0.00 | 59 | 1020.5 |
| 20260508025503 | 41 | 253 | 10.0 | 16.0 | 0.00 | 0.00 | 0.00 | 59 | 1020.5 |
| 20260508025004 | 42 | 243 | 8.0 | 17.0 | 0.00 | 0.00 | 0.00 | 59 | 1020.4 |
| 20260508024504 | 42 | 251 | 9.0 | 17.0 | 0.00 | 0.00 | 0.00 | 57 | 1020.3 |
| 20260508024003 | 42 | 240 | 10.0 | 20.0 | 0.00 | 0.00 | 0.00 | 55 | 1020.3 |
| 20260508023504 | 43 | 235 | 10.0 | 18.0 | 0.00 | 0.00 | 0.00 | 54 | 1020.3 |
| 20260508023003 | 43 | 240 | 9.0 | 17.0 | 0.00 | 0.00 | 0.00 | 51 | 1020.3 |
| 20260508022504 | 44 | 265 | 0.0 | 0.0 | 0.00 | 0.00 | 0.00 | 50 | 1020.2 |
| 20260508022003 | 44 | 259 | 0.0 | 0.0 | 0.00 | 0.00 | 0.00 | 49 | 1020.2 |
| 20260508021504 | 44 | 259 | 0.0 | 0.0 | 0.00 | 0.00 | 0.00 | 48 | 1020.1 |
| 20260508021003 | 44 | 245 | 0.0 | 0.0 | 0.00 | 0.00 | 0.00 | 48 | 1020.0 |
| 20260508020504 | 45 | 264 | 0.0 | 0.0 | 0.00 | 0.00 | 0.00 | 47 | 1020.0 |
| 20260508020004 | 45 | 262 | 5.0 | 17.0 | 0.00 | 0.00 | 0.00 | 47 | 1019.9 |
| 20260508015504 | 45 | 263 | 12.0 | 23.0 | 0.00 | 0.00 | 0.00 | 45 | 1019.8 |
| 20260508015004 | 45 | 261 | 10.0 | 20.0 | 0.00 | 0.00 | 0.00 | 45 | 1019.7 |
| 20260508014504 | 46 | 253 | 9.0 | 14.0 | 0.00 | 0.00 | 0.00 | 44 | 1019.7 |
| 20260508014003 | 46 | 265 | 0.0 | 0.0 | 0.00 | 0.00 | 0.00 | 43 | 1019.7 |
| 20260508013504 | 46 | 268 | 7.0 | 20.0 | 0.00 | 0.00 | 0.00 | 44 | 1019.6 |
| 20260508013004 | 46 | 263 | 12.0 | 22.0 | 0.00 | 0.00 | 0.00 | 43 | 1019.5 |
| 20260508012504 | 46 | 261 | 12.0 | 25.0 | 0.00 | 0.00 | 0.00 | 42 | 1019.4 |
| 20260508012004 | 46 | 264 | 10.0 | 21.0 | 0.00 | 0.00 | 0.00 | 42 | 1019.4 |
| 20260508011504 | 47 | 269 | 9.0 | 20.0 | 0.00 | 0.00 | 0.00 | 42 | 1019.4 |
| 20260508011003 | 47 | 268 | 12.0 | 20.0 | 0.00 | 0.00 | 0.00 | 39 | 1019.4 |
| 20260508010504 | 48 | 257 | 14.0 | 22.0 | 0.00 | 0.00 | 0.00 | 38 | 1019.4 |
| 20260508010004 | 48 | 256 | 12.0 | 21.0 | 0.00 | 0.00 | 0.00 | 37 | 1019.3 |
| 20260508005504 | 48 | 265 | 9.0 | 20.0 | 0.00 | 0.00 | 0.00 | 38 | 1019.3 |
| 20260508005003 | 48 | 260 | 13.0 | 26.0 | 0.00 | 0.00 | 0.00 | 38 | 1019.3 |
| 20260508004503 | 48 | 253 | 7.0 | 14.0 | 0.00 | 0.00 | 0.00 | 39 | 1019.4 |
| 20260508004004 | 47 | 267 | 0.0 | 0.0 | 0.00 | 0.00 | 0.00 | 40 | 1019.5 |
| 20260508003503 | 47 | 286 | 0.0 | 0.0 | 0.00 | 0.00 | 0.00 | 40 | 1019.4 |
| 20260508003005 | 47 | 274 | 1.0 | 12.0 | 0.00 | 0.00 | 0.00 | 40 | 1019.4 |
| 20260508002503 | 48 | 272 | 6.0 | 14.0 | 0.00 | 0.00 | 0.00 | 40 | 1019.5 |
| 20260508002004 | 48 | 254 | 10.0 | 18.0 | 0.00 | 0.00 | 0.00 | 38 | 1019.4 |
| 20260508001504 | 48 | 249 | 10.0 | 22.0 | 0.00 | 0.00 | 0.00 | 39 | 1019.5 |
| 20260508001004 | 48 | 258 | 11.0 | 21.0 | 0.00 | 0.00 | 0.00 | 39 | 1019.4 |
| 20260508000504 | 48 | 246 | 12.0 | 22.0 | 0.00 | 0.00 | 0.00 | 39 | 1019.4 |
| 20260508000004 | 49 | 235 | 10.0 | 21.0 | 0.00 | 0.00 | 0.00 | 38 | 1019.5 |
| 20260507235503 | 50 | 254 | 10.0 | 20.0 | 0.00 | 0.00 | 0.00 | 38 | 1019.5 |
| 20260507235004 | 50 | 260 | 12.0 | 25.0 | 0.00 | 0.00 | 0.00 | 37 | 1019.4 |
| 20260507234503 | 50 | 265 | 13.0 | 24.0 | 0.00 | 0.00 | 0.00 | 37 | 1019.4 |
| 20260507234004 | 50 | 251 | 13.0 | 24.0 | 0.00 | 0.00 | 0.00 | 35 | 1019.4 |
| 20260507233503 | 50 | 242 | 12.0 | 24.0 | 0.00 | 0.00 | 0.00 | 37 | 1019.4 |
| 20260507233003 | 50 | 253 | 11.0 | 20.0 | 0.00 | 0.00 | 0.00 | 38 | 1019.4 |
| 20260507232504 | 50 | 267 | 12.0 | 23.0 | 0.00 | 0.00 | 0.00 | 37 | 1019.4 |
| 20260507232003 | 50 | 260 | 13.0 | 23.0 | 0.00 | 0.00 | 0.00 | 35 | 1019.4 |
| 20260507231504 | 50 | 255 | 12.0 | 23.0 | 0.00 | 0.00 | 0.00 | 35 | 1019.5 |
| 20260507231003 | 50 | 280 | 12.0 | 26.0 | 0.00 | 0.00 | 0.00 | 36 | 1019.5 |
| 20260507230503 | 49 | 270 | 12.0 | 22.0 | 0.00 | 0.00 | 0.00 | 37 | 1019.5 |
| 20260507230004 | 49 | 241 | 11.0 | 22.0 | 0.00 | 0.00 | 0.00 | 37 | 1019.3 |
| 20260507225503 | 48 | 271 | 13.0 | 25.0 | 0.00 | 0.00 | 0.00 | 37 | 1019.4 |
| 20260507225004 | 48 | 280 | 11.0 | 24.0 | 0.00 | 0.00 | 0.00 | 38 | 1019.4 |
| 20260507224505 | 48 | 238 | 6.0 | 21.0 | 0.00 | 0.00 | 0.00 | 38 | 1019.4 |
| 20260507224004 | 48 | 270 | 8.0 | 17.0 | 0.00 | 0.00 | 0.00 | 39 | 1019.5 |
| 20260507223504 | 48 | 282 | 7.0 | 14.0 | 0.00 | 0.00 | 0.00 | 39 | 1019.5 |
| 20260507223004 | 48 | 289 | 11.0 | 18.0 | 0.00 | 0.00 | 0.00 | 39 | 1019.5 |
| 20260507222503 | 48 | 290 | 6.0 | 12.0 | 0.00 | 0.00 | 0.00 | 38 | 1019.5 |
| 20260507222004 | 48 | 276 | 9.0 | 17.0 | 0.00 | 0.00 | 0.00 | 37 | 1019.6 |
| 20260507221505 | 48 | 284 | 5.0 | 10.0 | 0.00 | 0.00 | 0.00 | 40 | 1019.6 |
| 20260507221003 | 48 | 269 | 6.0 | 14.0 | 0.00 | 0.00 | 0.00 | 40 | 1019.7 |
| 20260507220504 | 48 | 292 | 5.0 | 15.0 | 0.00 | 0.00 | 0.00 | 39 | 1019.7 |
| 20260507220004 | 48 | 297 | 6.0 | 16.0 | 0.00 | 0.00 | 0.00 | 40 | 1019.7 |
| 20260507215504 | 48 | 286 | 5.0 | 14.0 | 0.00 | 0.00 | 0.00 | 38 | 1019.8 |
| 20260507215003 | 48 | 301 | 9.0 | 20.0 | 0.00 | 0.00 | 0.00 | 38 | 1019.9 |
| 20260507214504 | 48 | 286 | 6.0 | 12.0 | 0.00 | 0.00 | 0.00 | 40 | 1019.9 |
| 20260507214003 | 48 | 292 | 7.0 | 15.0 | 0.00 | 0.00 | 0.00 | 39 | 1019.9 |
| 20260507213504 | 48 | 276 | 12.0 | 20.0 | 0.00 | 0.00 | 0.00 | 39 | 1019.9 |
| 20260507213004 | 49 | 282 | 10.0 | 15.0 | 0.00 | 0.00 | 0.00 | 39 | 1020.0 |
| 20260507212503 | 49 | 272 | 9.0 | 20.0 | 0.00 | 0.01 | 0.00 | 37 | 1020.0 |
| 20260507212004 | 50 | 268 | 9.0 | 15.0 | 0.00 | 0.01 | 0.00 | 38 | 1020.0 |
| 20260507211504 | 50 | 270 | 10.0 | 17.0 | 0.00 | 0.01 | 0.00 | 39 | 1020.0 |
| 20260507211004 | 49 | 276 | 13.0 | 21.0 | 0.00 | 0.01 | 0.00 | 38 | 1020.1 |
| 20260507210504 | 48 | 266 | 7.0 | 18.0 | 0.00 | 0.01 | 0.00 | 42 | 1020.2 |
| 20260507210004 | 49 | 270 | 12.0 | 17.0 | 0.00 | 0.01 | 0.00 | 38 | 1020.2 |
| 20260507205503 | 49 | 292 | 12.0 | 20.0 | 0.00 | 0.01 | 0.00 | 40 | 1020.2 |
| 20260507205004 | 50 | 270 | 11.0 | 21.0 | 0.00 | 0.01 | 0.00 | 40 | 1020.3 |
| 20260507204503 | 50 | 286 | 7.0 | 18.0 | 0.00 | 0.01 | 0.00 | 40 | 1020.2 |
| 20260507204004 | 50 | 262 | 11.0 | 22.0 | 0.00 | 0.01 | 0.00 | 41 | 1020.2 |
| 20260507203504 | 48 | 252 | 12.0 | 25.0 | 0.00 | 0.02 | 0.00 | 40 | 1020.3 |
| 20260507203004 | 49 | 264 | 12.0 | 20.0 | 0.00 | 0.02 | 0.00 | 40 | 1020.3 |
| 20260507202504 | 49 | 280 | 10.0 | 16.0 | 0.00 | 0.02 | 0.00 | 41 | 1020.3 |
| 20260507202004 | 49 | 304 | 12.0 | 18.0 | 0.00 | 0.03 | 0.00 | 40 | 1020.2 |
| 20260507201504 | 50 | 310 | 10.0 | 18.0 | 0.00 | 0.04 | 0.00 | 40 | 1020.2 |
| 20260507201003 | 49 | 263 | 7.0 | 17.0 | 0.00 | 0.04 | 0.00 | 42 | 1020.2 |
| 20260507200504 | 49 | 280 | 7.0 | 14.0 | 0.00 | 0.04 | 0.00 | 41 | 1020.3 |
| 20260507200003 | 49 | 331 | 7.0 | 13.0 | 0.00 | 0.04 | 0.00 | 41 | 1020.3 |
| 20260507195503 | 48 | 338 | 8.0 | 15.0 | 0.00 | 0.04 | 0.00 | 40 | 1020.3 |
| 20260507195003 | 47 | 280 | 6.0 | 16.0 | 0.00 | 0.04 | 0.00 | 42 | 1020.3 |
| 20260507194504 | 47 | 279 | 8.0 | 14.0 | 0.00 | 0.04 | 0.00 | 42 | 1020.3 |
| 20260507194003 | 47 | 338 | 9.0 | 14.0 | 0.00 | 0.04 | 0.00 | 42 | 1020.3 |
| 20260507193504 | 47 | 329 | 10.0 | 15.0 | 0.00 | 0.04 | 0.00 | 42 | 1020.3 |
| 20260507193004 | 47 | 276 | 8.0 | 14.0 | 0.00 | 0.04 | 0.00 | 42 | 1020.4 |
| 20260507192503 | 48 | 303 | 10.0 | 16.0 | 0.00 | 0.04 | 0.00 | 41 | 1020.3 |
| 20260507192004 | 48 | 288 | 9.0 | 13.0 | 0.00 | 0.04 | 0.00 | 43 | 1020.3 |
| 20260507191503 | 47 | 275 | 12.0 | 17.0 | 0.00 | 0.04 | 0.00 | 44 | 1020.3 |
| 20260507191003 | 48 | 280 | 8.0 | 15.0 | 0.00 | 0.04 | 0.00 | 44 | 1020.3 |
| 20260507190504 | 48 | 279 | 6.0 | 14.0 | 0.00 | 0.04 | 0.00 | 43 | 1020.4 |
| 20260507190005 | 47 | 266 | 9.0 | 17.0 | 0.00 | 0.04 | 0.00 | 43 | 1020.4 |
| 20260507185503 | 47 | 277 | 10.0 | 15.0 | 0.00 | 0.04 | 0.00 | 43 | 1020.4 |
| 20260507185004 | 47 | 317 | 7.0 | 12.0 | 0.00 | 0.04 | 0.00 | 46 | 1020.4 |
| 20260507184504 | 47 | 256 | 8.0 | 18.0 | 0.00 | 0.04 | 0.00 | 41 | 1020.4 |
| 20260507184004 | 47 | 269 | 10.0 | 17.0 | 0.00 | 0.04 | 0.00 | 43 | 1020.5 |
| 20260507183504 | 47 | 262 | 8.0 | 14.0 | 0.00 | 0.04 | 0.00 | 45 | 1020.5 |
| 20260507183003 | 47 | 261 | 7.0 | 12.0 | 0.00 | 0.04 | 0.00 | 46 | 1020.7 |
| 20260507182504 | 46 | 227 | 7.0 | 15.0 | 0.00 | 0.04 | 0.00 | 45 | 1020.7 |
| 20260507182004 | 46 | 224 | 9.0 | 15.0 | 0.00 | 0.04 | 0.00 | 47 | 1020.6 |
| 20260507181504 | 45 | 227 | 7.0 | 16.0 | 0.00 | 0.04 | 0.00 | 47 | 1020.7 |
| 20260507181004 | 45 | 258 | 7.0 | 14.0 | 0.00 | 0.04 | 0.00 | 45 | 1020.8 |
| 20260507180503 | 46 | 242 | 7.0 | 12.0 | 0.00 | 0.04 | 0.00 | 46 | 1020.8 |
| 20260507180004 | 46 | 270 | 9.0 | 15.0 | 0.00 | 0.04 | 0.00 | 44 | 1020.8 |
| 20260507175503 | 45 | 269 | 4.0 | 15.0 | 0.00 | 0.04 | 0.00 | 44 | 1020.8 |
| 20260507175004 | 46 | 274 | 8.0 | 15.0 | 0.00 | 0.04 | 0.00 | 44 | 1020.9 |
| 20260507174503 | 46 | 271 | 7.0 | 13.0 | 0.00 | 0.04 | 0.00 | 45 | 1020.9 |
| 20260507174004 | 45 | 272 | 7.0 | 12.0 | 0.00 | 0.04 | 0.00 | 47 | 1020.9 |
| 20260507173504 | 44 | 346 | 9.0 | 14.0 | 0.00 | 0.04 | 0.00 | 47 | 1021.0 |
| 20260507173004 | 44 | 309 | 11.0 | 18.0 | 0.00 | 0.04 | 0.00 | 45 | 1020.9 |
| 20260507172504 | 44 | 302 | 1.0 | 9.0 | 0.00 | 0.04 | 0.00 | 47 | 1021.0 |
| 20260507172003 | 44 | 293 | 0.0 | 0.0 | 0.00 | 0.04 | 0.00 | 48 | 1021.0 |
| 20260507171504 | 44 | 310 | 0.0 | 8.0 | 0.00 | 0.05 | 0.00 | 47 | 1021.0 |
| 20260507171005 | 44 | 288 | 5.0 | 10.0 | 0.00 | 0.05 | 0.00 | 48 | 1021.1 |
| 20260507170504 | 43 | 266 | 4.0 | 9.0 | 0.00 | 0.05 | 0.00 | 50 | 1021.1 |
| 20260507170004 | 43 | 296 | 4.0 | 10.0 | 0.00 | 0.05 | 0.00 | 47 | 1021.1 |
| 20260507165504 | 43 | 264 | 5.0 | 12.0 | 0.00 | 0.05 | 0.00 | 47 | 1021.2 |
| 20260507165003 | 42 | 289 | 6.0 | 10.0 | 0.00 | 0.05 | 0.00 | 48 | 1021.2 |
| 20260507164504 | 42 | 248 | 5.0 | 12.0 | 0.00 | 0.05 | 0.00 | 49 | 1021.1 |
| 20260507164003 | 42 | 250 | 2.0 | 6.0 | 0.00 | 0.05 | 0.00 | 49 | 1021.2 |
| 20260507163504 | 42 | 134 | 2.0 | 3.0 | 0.00 | 0.05 | 0.00 | 50 | 1021.2 |
| 20260507163003 | 42 | 134 | 2.0 | 3.0 | 0.00 | 0.05 | 0.00 | 51 | 1021.3 |
| 20260507162504 | 41 | 131 | 1.0 | 7.0 | 0.00 | 0.05 | 0.00 | 52 | 1021.4 |
| 20260507162003 | 41 | 76 | 3.0 | 6.0 | 0.00 | 0.05 | 0.00 | 51 | 1021.5 |
| 20260507161504 | 40 | 9 | 2.0 | 5.0 | 0.00 | 0.05 | 0.00 | 52 | 1021.6 |
| 20260507161003 | 39 | 34 | 1.0 | 5.0 | 0.00 | 0.05 | 0.00 | 52 | 1021.5 |
| 20260507160503 | 39 | 339 | 3.0 | 9.0 | 0.00 | 0.05 | 0.00 | 50 | 1021.5 |
| 20260507160004 | 38 | 47 | 2.0 | 3.0 | 0.00 | 0.05 | 0.00 | 54 | 1021.4 |
| 20260507155504 | 38 | 158 | 1.0 | 3.0 | 0.00 | 0.05 | 0.00 | 53 | 1021.4 |
| 20260507155004 | 38 | 158 | 2.0 | 5.0 | 0.00 | 0.05 | 0.00 | 53 | 1021.5 |
| 20260507154504 | 37 | 158 | 0.0 | 2.0 | 0.00 | 0.05 | 0.00 | 54 | 1021.6 |
| 20260507154004 | 37 | 158 | 0.0 | 3.0 | 0.00 | 0.05 | 0.00 | 52 | 1021.6 |
| 20260507153504 | 37 | 157 | 1.0 | 5.0 | 0.00 | 0.05 | 0.00 | 54 | 1021.6 |
| 20260507153004 | 37 | 158 | 2.0 | 6.0 | 0.00 | 0.05 | 0.00 | 55 | 1021.6 |
| 20260507152503 | 36 | 240 | 1.0 | 6.0 | 0.00 | 0.05 | 0.00 | 55 | 1021.6 |
| 20260507152005 | 35 | 209 | 1.0 | 3.0 | 0.00 | 0.05 | 0.00 | 55 | 1021.5 |
| 20260507151503 | 35 | 215 | 3.0 | 6.0 | 0.00 | 0.05 | 0.00 | 55 | 1021.7 |
| 20260507151004 | 35 | 213 | 3.0 | 5.0 | 0.00 | 0.05 | 0.00 | 53 | 1021.7 |
| 20260507150504 | 35 | 208 | 1.0 | 3.0 | 0.00 | 0.05 | 0.00 | 56 | 1021.7 |
| 20260507150004 | 35 | 223 | 3.0 | 5.0 | 0.00 | 0.05 | 0.00 | 58 | 1021.7 |
| 20260507145503 | 34 | 215 | 2.0 | 6.0 | 0.00 | 0.05 | 0.00 | 58 | 1021.8 |
| 20260507145004 | 34 | 213 | 2.0 | 6.0 | 0.00 | 0.05 | 0.00 | 57 | 1021.8 |
| 20260507144504 | 34 | 211 | 1.0 | 3.0 | 0.00 | 0.05 | 0.00 | 60 | 1021.7 |
| 20260507144004 | 33 | 211 | 0.0 | 3.0 | 0.00 | 0.05 | 0.00 | 61 | 1021.8 |
| 20260507143504 | 32 | 211 | 2.0 | 3.0 | 0.00 | 0.05 | 0.00 | 60 | 1021.8 |
| 20260507143004 | 32 | 210 | 2.0 | 5.0 | 0.00 | 0.05 | 0.00 | 63 | 1021.8 |
| 20260507142504 | 32 | 219 | 3.0 | 6.0 | 0.00 | 0.05 | 0.00 | 61 | 1021.8 |
| 20260507142004 | 32 | 224 | 4.0 | 6.0 | 0.00 | 0.05 | 0.00 | 61 | 1021.7 |
| 20260507141503 | 32 | 227 | 4.0 | 5.0 | 0.00 | 0.05 | 0.00 | 62 | 1021.7 |
| 20260507141004 | 31 | 223 | 5.0 | 7.0 | 0.00 | 0.05 | 0.00 | 60 | 1021.7 |
| 20260507140504 | 31 | 226 | 4.0 | 7.0 | 0.00 | 0.05 | 0.00 | 60 | 1021.7 |
| 20260507140004 | 31 | 257 | 5.0 | 7.0 | 0.00 | 0.05 | 0.00 | 59 | 1021.7 |
| 20260507135504 | 30 | 239 | 4.0 | 7.0 | 0.00 | 0.05 | 0.00 | 61 | 1021.7 |
| 20260507135004 | 29 | 259 | 2.0 | 6.0 | 0.00 | 0.05 | 0.00 | 60 | 1021.6 |
| 20260507134504 | 29 | 272 | 4.0 | 8.0 | 0.00 | 0.05 | 0.00 | 59 | 1021.6 |
| 20260507134004 | 28 | 271 | 3.0 | 7.0 | 0.00 | 0.05 | 0.00 | 59 | 1021.6 |
| 20260507133504 | 28 | 285 | 5.0 | 8.0 | 0.00 | 0.05 | 0.00 | 58 | 1021.6 |
| 20260507133003 | 28 | 292 | 2.0 | 3.0 | 0.00 | 0.05 | 0.00 | 58 | 1021.5 |
| 20260507132504 | 27 | 66 | 2.0 | 3.0 | 0.00 | 0.05 | 0.00 | 58 | 1021.4 |
| 20260507132003 | 27 | 68 | 2.0 | 3.0 | 0.00 | 0.05 | 0.00 | 60 | 1021.4 |
| 20260507131504 | 26 | 92 | 1.0 | 3.0 | 0.00 | 0.05 | 0.00 | 60 | 1021.3 |
| 20260507131003 | 26 | 107 | 0.0 | 2.0 | 0.00 | 0.05 | 0.00 | 62 | 1021.4 |
| 20260507130504 | 26 | 107 | 0.0 | 1.0 | 0.00 | 0.05 | 0.00 | 61 | 1021.4 |
| 20260507130004 | 26 | 107 | 1.0 | 3.0 | 0.00 | 0.05 | 0.00 | 59 | 1021.4 |
| 20260507125504 | 25 | 107 | 2.0 | 3.0 | 0.00 | 0.05 | 0.00 | 57 | 1021.3 |
| 20260507125004 | 25 | 107 | 2.0 | 3.0 | 0.00 | 0.05 | 0.00 | 59 | 1021.4 |
| 20260507124504 | 25 | 107 | 0.0 | 0.0 | 0.00 | 0.05 | 0.00 | 57 | 1021.4 |
| 20260507124004 | 25 | 107 | 0.0 | 1.0 | 0.00 | 0.05 | 0.00 | 57 | 1021.3 |
| 20260507123503 | 26 | 107 | 1.0 | 2.0 | 0.00 | 0.05 | 0.00 | 57 | 1021.2 |
| 20260507123004 | 26 | 104 | 2.0 | 3.0 | 0.00 | 0.05 | 0.00 | 57 | 1021.0 |
| 20260507122503 | 26 | 99 | 2.0 | 3.0 | 0.00 | 0.05 | 0.00 | 58 | 1021.0 |
| 20260507122004 | 26 | 98 | 2.0 | 3.0 | 0.00 | 0.05 | 0.00 | 58 | 1021.1 |
| 20260507121503 | 26 | 97 | 1.0 | 3.0 | 0.00 | 0.05 | 0.00 | 59 | 1021.1 |
| 20260507121004 | 26 | 97 | 2.0 | 3.0 | 0.00 | 0.05 | 0.00 | 61 | 1021.0 |
| 20260507120503 | 26 | 97 | 1.0 | 3.0 | 0.00 | 0.05 | 0.00 | 61 | 1021.0 |
| 20260507120005 | 26 | 97 | 0.0 | 1.0 | 0.00 | 0.05 | 0.00 | 60 | 1020.9 |
| 20260507115503 | 26 | 97 | 0.0 | 1.0 | 0.00 | 0.05 | 0.00 | 57 | 1021.0 |
| 20260507115004 | 26 | 97 | 0.0 | 1.0 | 0.00 | 0.05 | 0.00 | 57 | 1020.9 |
| 20260507114503 | 26 | 97 | 1.0 | 2.0 | 0.00 | 0.05 | 0.00 | 58 | 1020.9 |
| 20260507114004 | 26 | 95 | 2.0 | 3.0 | 0.00 | 0.05 | 0.00 | 59 | 1020.9 |
| 20260507113504 | 26 | 67 | 3.0 | 3.0 | 0.00 | 0.05 | 0.00 | 59 | 1020.9 |
| 20260507113004 | 26 | 59 | 2.0 | 3.0 | 0.00 | 0.05 | 0.00 | 58 | 1021.0 |
| 20260507112504 | 26 | 59 | 3.0 | 3.0 | 0.00 | 0.05 | 0.00 | 58 | 1021.0 |
| 20260507112004 | 26 | 42 | 2.0 | 3.0 | 0.00 | 0.05 | 0.00 | 57 | 1020.9 |
| 20260507111504 | 26 | 42 | 2.0 | 3.0 | 0.00 | 0.05 | 0.00 | 54 | 1021.0 |
| 20260507111004 | 26 | 42 | 2.0 | 3.0 | 0.00 | 0.05 | 0.00 | 54 | 1020.9 |
| 20260507110503 | 26 | 42 | 3.0 | 3.0 | 0.00 | 0.05 | 0.00 | 55 | 1020.8 |
| 20260507110004 | 26 | 339 | 1.0 | 2.0 | 0.00 | 0.05 | 0.00 | 56 | 1020.8 |
| 20260507105503 | 26 | 339 | 0.0 | 0.0 | 0.00 | 0.05 | 0.00 | 58 | 1020.9 |
| 20260507105004 | 26 | 339 | 0.0 | 0.0 | 0.00 | 0.05 | 0.00 | 55 | 1020.9 |
| 20260507104504 | 26 | 339 | 0.0 | 0.0 | 0.00 | 0.05 | 0.00 | 55 | 1020.9 |
| 20260507104004 | 26 | 339 | 0.0 | 3.0 | 0.00 | 0.05 | 0.00 | 52 | 1020.8 |
| 20260507103505 | 26 | 339 | 3.0 | 3.0 | 0.00 | 0.05 | 0.00 | 50 | 1020.8 |
| 20260507103004 | 26 | 339 | 3.0 | 3.0 | 0.00 | 0.05 | 0.00 | 51 | 1020.7 |
| 20260507102503 | 26 | 338 | 1.0 | 3.0 | 0.00 | 0.05 | 0.00 | 51 | 1020.8 |
| 20260507102006 | 26 | 338 | 0.0 | 0.0 | 0.00 | 0.05 | 0.00 | 52 | 1020.8 |
| 20260507101503 | 26 | 338 | 0.0 | 1.0 | 0.00 | 0.05 | 0.00 | 51 | 1020.8 |
| 20260507101004 | 26 | 338 | 1.0 | 3.0 | 0.00 | 0.05 | 0.00 | 49 | 1020.7 |
| 20260507100505 | 26 | 338 | 1.0 | 3.0 | 0.00 | 0.05 | 0.00 | 49 | 1020.8 |
| 20260507100004 | 26 | 338 | 1.0 | 3.0 | 0.00 | 0.05 | 0.00 | 49 | 1020.7 |
| 20260507095504 | 26 | 338 | 0.0 | 0.0 | 0.00 | 0.05 | 0.00 | 49 | 1020.7 |
| 20260507095003 | 26 | 338 | 0.0 | 0.0 | 0.00 | 0.05 | 0.00 | 49 | 1020.8 |
| 20260507094505 | 26 | 338 | 0.0 | 2.0 | 0.00 | 0.05 | 0.00 | 49 | 1020.8 |
| 20260507094004 | 26 | 338 | 0.0 | 0.0 | 0.00 | 0.05 | 0.00 | 48 | 1020.9 |
| 20260507093503 | 26 | 338 | 2.0 | 3.0 | 0.00 | 0.05 | 0.00 | 49 | 1020.8 |
| 20260507093004 | 26 | 338 | 2.0 | 3.0 | 0.00 | 0.05 | 0.00 | 48 | 1020.9 |
| 20260507092504 | 26 | 25 | 2.0 | 3.0 | 0.00 | 0.05 | 0.00 | 48 | 1020.8 |
| 20260507092004 | 25 | 30 | 1.0 | 2.0 | 0.00 | 0.05 | 0.00 | 49 | 1020.8 |
| 20260507091504 | 25 | 30 | 1.0 | 2.0 | 0.00 | 0.05 | 0.00 | 51 | 1020.8 |
| 20260507091003 | 25 | 30 | 3.0 | 3.0 | 0.00 | 0.05 | 0.00 | 54 | 1020.9 |
| 20260507090504 | 25 | 28 | 5.0 | 5.0 | 0.00 | 0.05 | 0.00 | 55 | 1020.9 |
| 20260507090005 | 25 | 29 | 3.0 | 5.0 | 0.00 | 0.05 | 0.00 | 54 | 1021.0 |
| 20260507085503 | 25 | 24 | 5.0 | 6.0 | 0.00 | 0.05 | 0.00 | 57 | 1021.0 |
| 20260507085004 | 25 | 22 | 4.0 | 5.0 | 0.00 | 0.05 | 0.00 | 56 | 1021.0 |
| 20260507084503 | 25 | 22 | 3.0 | 7.0 | 0.00 | 0.05 | 0.00 | 57 | 1021.0 |
| 20260507084003 | 25 | 23 | 5.0 | 6.0 | 0.00 | 0.05 | 0.00 | 57 | 1021.1 |
| 20260507083504 | 24 | 29 | 3.0 | 5.0 | 0.00 | 0.05 | 0.00 | 57 | 1021.1 |
| 20260507083004 | 24 | 31 | 1.0 | 3.0 | 0.00 | 0.05 | 0.00 | 57 | 1021.1 |
| 20260507082504 | 24 | 32 | 2.0 | 5.0 | 0.00 | 0.05 | 0.00 | 58 | 1021.2 |
| 20260507082003 | 24 | 35 | 4.0 | 5.0 | 0.00 | 0.05 | 0.00 | 59 | 1021.1 |
| 20260507081504 | 24 | 35 | 3.0 | 5.0 | 0.00 | 0.05 | 0.00 | 60 | 1021.1 |
| 20260507081003 | 24 | 31 | 3.0 | 5.0 | 0.00 | 0.05 | 0.00 | 61 | 1021.1 |
| 20260507080504 | 25 | 32 | 3.0 | 6.0 | 0.00 | 0.05 | 0.00 | 61 | 1021.2 |
| 20260507080004 | 25 | 31 | 3.0 | 6.0 | 0.00 | 0.05 | 0.00 | 61 | 1021.2 |
| 20260507075504 | 25 | 31 | 5.0 | 6.0 | 0.00 | 0.05 | 0.00 | 60 | 1021.1 |
| 20260507075004 | 26 | 27 | 5.0 | 9.0 | 0.00 | 0.05 | 0.00 | 57 | 1021.2 |
| 20260507074504 | 26 | 14 | 4.0 | 8.0 | 0.00 | 0.05 | 0.00 | 57 | 1021.2 |
| 20260507074004 | 26 | 333 | 4.0 | 9.0 | 0.00 | 0.05 | 0.00 | 57 | 1021.2 |
| 20260507073504 | 26 | 340 | 6.0 | 13.0 | 0.00 | 0.05 | 0.00 | 57 | 1021.2 |
| 20260507073004 | 25 | 338 | 7.0 | 15.0 | 0.00 | 0.05 | 0.00 | 59 | 1021.3 |
| 20260507072503 | 25 | 345 | 5.0 | 10.0 | 0.00 | 0.05 | 0.00 | 61 | 1021.2 |
| 20260507072004 | 25 | 344 | 6.0 | 15.0 | 0.00 | 0.05 | 0.00 | 63 | 1021.3 |
| 20260507071504 | 24 | 340 | 7.0 | 12.0 | 0.00 | 0.05 | 0.00 | 65 | 1021.2 |
| 20260507071004 | 25 | 13 | 4.0 | 9.0 | 0.00 | 0.05 | 0.00 | 65 | 1021.2 |
| 20260507070504 | 25 | 21 | 5.0 | 10.0 | 0.00 | 0.05 | 0.00 | 65 | 1021.2 |
| 20260507070008 | 25 | 14 | 6.0 | 10.0 | 0.00 | 0.05 | 0.00 | 65 | 1021.2 |
| 20260507065503 | 25 | 18 | 3.0 | 10.0 | 0.00 | 0.05 | 0.00 | 65 | 1021.2 |
| 20260507065003 | 25 | 345 | 5.0 | 12.0 | 0.00 | 0.05 | 0.00 | 65 | 1021.2 |
| 20260507064504 | 25 | 348 | 6.0 | 14.0 | 0.00 | 0.05 | 0.00 | 65 | 1021.2 |
| 20260507064003 | 25 | 344 | 8.0 | 15.0 | 0.00 | 0.05 | 0.00 | 65 | 1021.1 |
| 20260507063503 | 25 | 339 | 9.0 | 14.0 | 0.00 | 0.05 | 0.00 | 65 | 1021.2 |
| 20260507063004 | 25 | 340 | 7.0 | 12.0 | 0.00 | 0.05 | 0.00 | 65 | 1021.1 |
| 20260507062504 | 25 | 354 | 6.0 | 13.0 | 0.00 | 0.05 | 0.00 | 66 | 1021.2 |
| 20260507062004 | 25 | 5 | 3.0 | 12.0 | 0.00 | 0.05 | 0.00 | 68 | 1021.3 |
| 20260507061504 | 25 | 30 | 6.0 | 12.0 | 0.00 | 0.05 | 0.00 | 67 | 1021.3 |
| 20260507061003 | 25 | 22 | 7.0 | 12.0 | 0.00 | 0.05 | 0.00 | 66 | 1021.2 |
| 20260507060504 | 25 | 19 | 6.0 | 10.0 | 0.00 | 0.05 | 0.00 | 65 | 1021.1 |
| 20260507060004 | 26 | 7 | 6.0 | 13.0 | 0.00 | 0.05 | 0.00 | 65 | 1021.1 |
| 20260507055503 | 26 | 5 | 4.0 | 12.0 | 0.00 | 0.05 | 0.05 | 64 | 1021.0 |
| 20260507055004 | 26 | 353 | 7.0 | 12.0 | 0.00 | 0.05 | 0.05 | 63 | 1020.9 |
| 20260507054504 | 26 | 347 | 6.0 | 12.0 | 0.00 | 0.05 | 0.05 | 63 | 1020.9 |
| 20260507054004 | 26 | 343 | 6.0 | 12.0 | 0.00 | 0.05 | 0.05 | 63 | 1021.0 |
| 20260507053504 | 26 | 347 | 5.0 | 9.0 | 0.00 | 0.05 | 0.05 | 62 | 1021.0 |
| 20260507053005 | 26 | 348 | 5.0 | 10.0 | 0.00 | 0.05 | 0.05 | 63 | 1021.0 |
| 20260507052503 | 26 | 349 | 5.0 | 9.0 | 0.00 | 0.05 | 0.05 | 64 | 1020.9 |
| 20260507052004 | 26 | 22 | 4.0 | 10.0 | 0.00 | 0.05 | 0.05 | 65 | 1020.9 |
| 20260507051504 | 26 | 351 | 5.0 | 10.0 | 0.00 | 0.05 | 0.05 | 65 | 1020.9 |
| 20260507051004 | 26 | 343 | 6.0 | 12.0 | 0.00 | 0.05 | 0.05 | 65 | 1020.9 |
| 20260507050504 | 26 | 354 | 6.0 | 10.0 | 0.00 | 0.05 | 0.05 | 66 | 1020.9 |
| 20260507050004 | 26 | 339 | 5.0 | 12.0 | 0.00 | 0.05 | 0.05 | 65 | 1020.8 |
| 20260507045504 | 26 | 352 | 5.0 | 10.0 | 0.00 | 0.05 | 0.05 | 65 | 1020.9 |
| 20260507045003 | 26 | 350 | 7.0 | 12.0 | 0.00 | 0.05 | 0.05 | 65 | 1020.8 |
| 20260507044504 | 26 | 349 | 7.0 | 13.0 | 0.00 | 0.05 | 0.05 | 65 | 1020.8 |
| 20260507044004 | 26 | 345 | 6.0 | 13.0 | 0.00 | 0.05 | 0.05 | 65 | 1020.8 |
| 20260507043503 | 26 | 343 | 6.0 | 12.0 | 0.00 | 0.05 | 0.05 | 66 | 1020.8 |
| 20260507043004 | 26 | 332 | 5.0 | 14.0 | 0.00 | 0.05 | 0.05 | 67 | 1020.7 |
| 20260507042505 | 27 | 330 | 3.0 | 8.0 | 0.00 | 0.05 | 0.05 | 67 | 1020.7 |
| 20260507042004 | 27 | 356 | 5.0 | 9.0 | 0.00 | 0.05 | 0.05 | 65 | 1020.7 |
| 20260507041504 | 27 | 351 | 5.0 | 10.0 | 0.00 | 0.05 | 0.05 | 65 | 1020.6 |
| 20260507041004 | 27 | 346 | 5.0 | 13.0 | 0.00 | 0.05 | 0.05 | 65 | 1020.6 |
| 20260507040504 | 27 | 346 | 4.0 | 10.0 | 0.00 | 0.05 | 0.05 | 65 | 1020.5 |
| 20260507040004 | 27 | 354 | 5.0 | 12.0 | 0.00 | 0.05 | 0.05 | 65 | 1020.4 |
| 20260507035504 | 27 | 351 | 3.0 | 9.0 | 0.00 | 0.05 | 0.05 | 66 | 1020.3 |
| 20260507035004 | 27 | 353 | 2.0 | 9.0 | 0.00 | 0.05 | 0.05 | 67 | 1020.2 |
| 20260507034503 | 27 | 345 | 3.0 | 6.0 | 0.00 | 0.05 | 0.05 | 65 | 1020.2 |
| 20260507034004 | 27 | 32 | 3.0 | 3.0 | 0.00 | 0.05 | 0.05 | 65 | 1020.1 |
| 20260507033503 | 27 | 33 | 3.0 | 5.0 | 0.00 | 0.05 | 0.05 | 65 | 1020.1 |